sensor_id;sensor_type;location;lat;lon;timestamp;P1;durP1;ratioP1;P2;durP2;ratioP2
79539;SDS011;76655;52.122;5.406;2024-03-22T00:02:22;23.05;;;11.40;;
79539;SDS011;76655;52.122;5.406;2024-03-22T00:04:47;24.70;;;11.73;;
79539;SDS011;76655;52.122;5.406;2024-03-22T00:07:13;25.17;;;11.15;;
79539;SDS011;76655;52.122;5.406;2024-03-22T00:09:38;24.00;;;11.98;;
79539;SDS011;76655;52.122;5.406;2024-03-22T00:12:04;28.05;;;14.40;;
79539;SDS011;76655;52.122;5.406;2024-03-22T00:14:30;24.60;;;11.48;;
79539;SDS011;76655;52.122;5.406;2024-03-22T00:16:56;25.48;;;10.73;;
79539;SDS011;76655;52.122;5.406;2024-03-22T00:19:21;24.63;;;11.80;;
79539;SDS011;76655;52.122;5.406;2024-03-22T00:21:47;24.42;;;11.68;;
79539;SDS011;76655;52.122;5.406;2024-03-22T00:24:12;24.20;;;11.75;;
79539;SDS011;76655;52.122;5.406;2024-03-22T00:26:38;27.70;;;11.93;;
79539;SDS011;76655;52.122;5.406;2024-03-22T00:29:04;28.20;;;12.82;;
79539;SDS011;76655;52.122;5.406;2024-03-22T00:31:30;22.83;;;11.30;;
79539;SDS011;76655;52.122;5.406;2024-03-22T00:33:55;22.52;;;10.32;;
79539;SDS011;76655;52.122;5.406;2024-03-22T00:36:21;25.80;;;11.00;;
79539;SDS011;76655;52.122;5.406;2024-03-22T00:38:47;26.92;;;13.10;;
79539;SDS011;76655;52.122;5.406;2024-03-22T00:41:12;28.98;;;13.18;;
79539;SDS011;76655;52.122;5.406;2024-03-22T00:43:38;26.17;;;11.35;;
79539;SDS011;76655;52.122;5.406;2024-03-22T00:46:04;25.17;;;12.40;;
79539;SDS011;76655;52.122;5.406;2024-03-22T00:48:29;25.30;;;11.93;;
79539;SDS011;76655;52.122;5.406;2024-03-22T00:50:55;24.77;;;11.63;;
79539;SDS011;76655;52.122;5.406;2024-03-22T00:53:21;22.17;;;10.70;;
79539;SDS011;76655;52.122;5.406;2024-03-22T00:55:46;27.17;;;13.18;;
79539;SDS011;76655;52.122;5.406;2024-03-22T00:58:17;27.33;;;11.18;;
79539;SDS011;76655;52.122;5.406;2024-03-22T01:00:46;29.00;;;13.27;;
79539;SDS011;76655;52.122;5.406;2024-03-22T01:03:12;25.98;;;11.73;;
79539;SDS011;76655;52.122;5.406;2024-03-22T01:05:38;26.83;;;12.73;;
79539;SDS011;76655;52.122;5.406;2024-03-22T01:08:05;29.67;;;13.23;;
79539;SDS011;76655;52.122;5.406;2024-03-22T01:10:32;25.30;;;12.63;;
79539;SDS011;76655;52.122;5.406;2024-03-22T01:12:58;26.20;;;11.25;;
79539;SDS011;76655;52.122;5.406;2024-03-22T01:15:24;22.63;;;11.32;;
79539;SDS011;76655;52.122;5.406;2024-03-22T01:17:49;26.38;;;12.60;;
79539;SDS011;76655;52.122;5.406;2024-03-22T01:20:15;24.90;;;12.55;;
79539;SDS011;76655;52.122;5.406;2024-03-22T01:22:41;24.42;;;12.50;;
79539;SDS011;76655;52.122;5.406;2024-03-22T01:25:07;26.00;;;11.57;;
79539;SDS011;76655;52.122;5.406;2024-03-22T01:27:33;28.33;;;13.30;;
79539;SDS011;76655;52.122;5.406;2024-03-22T01:29:58;27.10;;;11.93;;
79539;SDS011;76655;52.122;5.406;2024-03-22T01:32:24;26.08;;;11.25;;
79539;SDS011;76655;52.122;5.406;2024-03-22T01:34:49;26.55;;;11.98;;
79539;SDS011;76655;52.122;5.406;2024-03-22T01:37:15;27.83;;;11.75;;
79539;SDS011;76655;52.122;5.406;2024-03-22T01:39:40;27.67;;;12.90;;
79539;SDS011;76655;52.122;5.406;2024-03-22T01:42:06;29.80;;;11.95;;
79539;SDS011;76655;52.122;5.406;2024-03-22T01:44:32;28.48;;;13.07;;
79539;SDS011;76655;52.122;5.406;2024-03-22T01:46:58;25.25;;;11.98;;
79539;SDS011;76655;52.122;5.406;2024-03-22T01:49:25;32.15;;;14.77;;
79539;SDS011;76655;52.122;5.406;2024-03-22T01:51:51;31.38;;;13.23;;
79539;SDS011;76655;52.122;5.406;2024-03-22T01:54:18;29.60;;;13.60;;
79539;SDS011;76655;52.122;5.406;2024-03-22T01:56:45;25.58;;;11.73;;
79539;SDS011;76655;52.122;5.406;2024-03-22T01:59:11;33.72;;;14.65;;
79539;SDS011;76655;52.122;5.406;2024-03-22T02:01:37;30.75;;;14.55;;
79539;SDS011;76655;52.122;5.406;2024-03-22T02:04:04;28.10;;;12.80;;
79539;SDS011;76655;52.122;5.406;2024-03-22T02:06:31;32.38;;;14.43;;
79539;SDS011;76655;52.122;5.406;2024-03-22T02:08:57;31.02;;;12.98;;
79539;SDS011;76655;52.122;5.406;2024-03-22T02:11:23;28.48;;;14.05;;
79539;SDS011;76655;52.122;5.406;2024-03-22T02:13:50;27.25;;;11.90;;
79539;SDS011;76655;52.122;5.406;2024-03-22T02:16:16;30.33;;;14.13;;
79539;SDS011;76655;52.122;5.406;2024-03-22T02:18:42;30.65;;;12.05;;
79539;SDS011;76655;52.122;5.406;2024-03-22T02:21:08;27.17;;;12.88;;
79539;SDS011;76655;52.122;5.406;2024-03-22T02:26:00;27.67;;;12.75;;
79539;SDS011;76655;52.122;5.406;2024-03-22T02:28:26;32.05;;;14.23;;
79539;SDS011;76655;52.122;5.406;2024-03-22T02:30:52;27.77;;;13.57;;
79539;SDS011;76655;52.122;5.406;2024-03-22T02:33:18;28.83;;;11.32;;
79539;SDS011;76655;52.122;5.406;2024-03-22T02:35:46;28.85;;;13.32;;
79539;SDS011;76655;52.122;5.406;2024-03-22T02:38:12;26.67;;;13.80;;
79539;SDS011;76655;52.122;5.406;2024-03-22T02:40:37;29.67;;;13.50;;
79539;SDS011;76655;52.122;5.406;2024-03-22T02:43:03;31.60;;;12.90;;
79539;SDS011;76655;52.122;5.406;2024-03-22T02:45:29;28.52;;;13.40;;
79539;SDS011;76655;52.122;5.406;2024-03-22T02:47:56;30.65;;;13.60;;
79539;SDS011;76655;52.122;5.406;2024-03-22T02:50:22;26.33;;;12.40;;
79539;SDS011;76655;52.122;5.406;2024-03-22T02:52:48;28.10;;;13.10;;
79539;SDS011;76655;52.122;5.406;2024-03-22T02:55:14;27.60;;;12.98;;
79539;SDS011;76655;52.122;5.406;2024-03-22T02:57:39;27.02;;;13.23;;
79539;SDS011;76655;52.122;5.406;2024-03-22T03:00:05;25.30;;;12.48;;
79539;SDS011;76655;52.122;5.406;2024-03-22T03:02:32;32.05;;;13.48;;
79539;SDS011;76655;52.122;5.406;2024-03-22T03:04:57;30.45;;;12.65;;
79539;SDS011;76655;52.122;5.406;2024-03-22T03:07:24;32.88;;;15.82;;
79539;SDS011;76655;52.122;5.406;2024-03-22T03:09:50;33.92;;;13.85;;
79539;SDS011;76655;52.122;5.406;2024-03-22T03:12:15;26.17;;;13.18;;
79539;SDS011;76655;52.122;5.406;2024-03-22T03:14:41;29.58;;;13.75;;
79539;SDS011;76655;52.122;5.406;2024-03-22T03:17:07;28.25;;;13.48;;
79539;SDS011;76655;52.122;5.406;2024-03-22T03:19:33;30.60;;;13.02;;
79539;SDS011;76655;52.122;5.406;2024-03-22T03:21:59;30.60;;;13.13;;
79539;SDS011;76655;52.122;5.406;2024-03-22T03:24:24;27.50;;;11.77;;
79539;SDS011;76655;52.122;5.406;2024-03-22T03:26:50;34.78;;;14.52;;
79539;SDS011;76655;52.122;5.406;2024-03-22T03:29:15;31.33;;;12.57;;
79539;SDS011;76655;52.122;5.406;2024-03-22T03:31:41;31.23;;;12.25;;
79539;SDS011;76655;52.122;5.406;2024-03-22T03:34:07;32.80;;;13.85;;
79539;SDS011;76655;52.122;5.406;2024-03-22T03:36:32;33.75;;;14.35;;
79539;SDS011;76655;52.122;5.406;2024-03-22T03:38:58;36.20;;;15.45;;
79539;SDS011;76655;52.122;5.406;2024-03-22T03:41:24;29.02;;;13.05;;
79539;SDS011;76655;52.122;5.406;2024-03-22T03:43:49;29.90;;;13.88;;
79539;SDS011;76655;52.122;5.406;2024-03-22T03:46:15;36.20;;;15.30;;
79539;SDS011;76655;52.122;5.406;2024-03-22T03:48:40;27.20;;;10.77;;
79539;SDS011;76655;52.122;5.406;2024-03-22T03:51:06;32.10;;;13.00;;
79539;SDS011;76655;52.122;5.406;2024-03-22T03:53:32;27.77;;;12.32;;
79539;SDS011;76655;52.122;5.406;2024-03-22T03:55:57;36.42;;;13.05;;
79539;SDS011;76655;52.122;5.406;2024-03-22T03:58:23;27.08;;;11.35;;
79539;SDS011;76655;52.122;5.406;2024-03-22T04:00:48;34.88;;;14.45;;
79539;SDS011;76655;52.122;5.406;2024-03-22T04:03:14;29.33;;;12.57;;
79539;SDS011;76655;52.122;5.406;2024-03-22T04:05:40;27.30;;;11.60;;
79539;SDS011;76655;52.122;5.406;2024-03-22T04:08:05;31.42;;;12.93;;
79539;SDS011;76655;52.122;5.406;2024-03-22T04:10:31;24.75;;;11.35;;
79539;SDS011;76655;52.122;5.406;2024-03-22T04:12:57;28.23;;;11.90;;
79539;SDS011;76655;52.122;5.406;2024-03-22T04:15:23;31.90;;;11.95;;
79539;SDS011;76655;52.122;5.406;2024-03-22T04:17:49;31.73;;;13.05;;
79539;SDS011;76655;52.122;5.406;2024-03-22T04:20:14;30.58;;;12.95;;
79539;SDS011;76655;52.122;5.406;2024-03-22T04:22:40;31.65;;;13.27;;
79539;SDS011;76655;52.122;5.406;2024-03-22T04:25:06;29.05;;;11.18;;
79539;SDS011;76655;52.122;5.406;2024-03-22T04:27:32;24.35;;;10.32;;
79539;SDS011;76655;52.122;5.406;2024-03-22T04:29:57;31.75;;;11.63;;
79539;SDS011;76655;52.122;5.406;2024-03-22T04:32:23;32.30;;;12.52;;
79539;SDS011;76655;52.122;5.406;2024-03-22T04:34:49;33.60;;;13.82;;
79539;SDS011;76655;52.122;5.406;2024-03-22T04:37:15;28.58;;;11.30;;
79539;SDS011;76655;52.122;5.406;2024-03-22T04:39:40;31.23;;;12.63;;
79539;SDS011;76655;52.122;5.406;2024-03-22T04:42:06;33.97;;;13.48;;
79539;SDS011;76655;52.122;5.406;2024-03-22T04:44:33;33.35;;;12.27;;
79539;SDS011;76655;52.122;5.406;2024-03-22T04:46:58;31.02;;;13.07;;
79539;SDS011;76655;52.122;5.406;2024-03-22T04:49:24;26.33;;;11.82;;
79539;SDS011;76655;52.122;5.406;2024-03-22T04:51:50;28.65;;;12.10;;
79539;SDS011;76655;52.122;5.406;2024-03-22T04:54:15;29.00;;;11.57;;
79539;SDS011;76655;52.122;5.406;2024-03-22T04:56:41;27.05;;;11.70;;
79539;SDS011;76655;52.122;5.406;2024-03-22T04:59:07;30.40;;;12.38;;
79539;SDS011;76655;52.122;5.406;2024-03-22T05:01:32;30.13;;;12.85;;
79539;SDS011;76655;52.122;5.406;2024-03-22T05:03:58;35.92;;;13.75;;
79539;SDS011;76655;52.122;5.406;2024-03-22T05:06:23;33.33;;;13.57;;
79539;SDS011;76655;52.122;5.406;2024-03-22T05:08:49;31.50;;;12.02;;
79539;SDS011;76655;52.122;5.406;2024-03-22T05:11:15;30.27;;;13.32;;
79539;SDS011;76655;52.122;5.406;2024-03-22T05:13:40;31.90;;;13.13;;
79539;SDS011;76655;52.122;5.406;2024-03-22T05:16:06;34.45;;;14.07;;
79539;SDS011;76655;52.122;5.406;2024-03-22T05:18:32;32.05;;;13.63;;
79539;SDS011;76655;52.122;5.406;2024-03-22T05:20:58;34.20;;;13.63;;
79539;SDS011;76655;52.122;5.406;2024-03-22T05:23:23;32.47;;;14.45;;
79539;SDS011;76655;52.122;5.406;2024-03-22T05:25:49;34.13;;;14.55;;
79539;SDS011;76655;52.122;5.406;2024-03-22T05:28:15;35.38;;;13.52;;
79539;SDS011;76655;52.122;5.406;2024-03-22T05:30:40;28.70;;;13.75;;
79539;SDS011;76655;52.122;5.406;2024-03-22T05:33:06;32.25;;;13.15;;
79539;SDS011;76655;52.122;5.406;2024-03-22T05:35:32;33.00;;;14.45;;
79539;SDS011;76655;52.122;5.406;2024-03-22T05:37:57;31.00;;;13.32;;
79539;SDS011;76655;52.122;5.406;2024-03-22T05:40:23;34.38;;;13.45;;
79539;SDS011;76655;52.122;5.406;2024-03-22T05:42:48;28.90;;;12.25;;
79539;SDS011;76655;52.122;5.406;2024-03-22T05:45:14;28.48;;;12.93;;
79539;SDS011;76655;52.122;5.406;2024-03-22T05:47:40;32.08;;;12.82;;
79539;SDS011;76655;52.122;5.406;2024-03-22T05:50:06;28.10;;;12.63;;
79539;SDS011;76655;52.122;5.406;2024-03-22T05:52:33;32.08;;;12.32;;
79539;SDS011;76655;52.122;5.406;2024-03-22T05:54:59;29.17;;;12.45;;
79539;SDS011;76655;52.122;5.406;2024-03-22T05:57:25;32.35;;;13.43;;
79539;SDS011;76655;52.122;5.406;2024-03-22T05:59:50;24.75;;;12.77;;
79539;SDS011;76655;52.122;5.406;2024-03-22T06:02:16;26.23;;;12.15;;
79539;SDS011;76655;52.122;5.406;2024-03-22T06:04:42;28.30;;;13.20;;
79539;SDS011;76655;52.122;5.406;2024-03-22T06:07:08;25.67;;;11.30;;
79539;SDS011;76655;52.122;5.406;2024-03-22T06:09:33;31.20;;;10.65;;
79539;SDS011;76655;52.122;5.406;2024-03-22T06:12:03;25.98;;;12.25;;
79539;SDS011;76655;52.122;5.406;2024-03-22T06:14:30;32.40;;;12.93;;
79539;SDS011;76655;52.122;5.406;2024-03-22T06:16:55;30.90;;;12.50;;
79539;SDS011;76655;52.122;5.406;2024-03-22T06:19:21;29.95;;;13.35;;
79539;SDS011;76655;52.122;5.406;2024-03-22T06:21:46;31.50;;;11.82;;
79539;SDS011;76655;52.122;5.406;2024-03-22T06:24:12;31.15;;;11.70;;
79539;SDS011;76655;52.122;5.406;2024-03-22T06:26:38;31.17;;;14.07;;
79539;SDS011;76655;52.122;5.406;2024-03-22T06:29:04;27.85;;;12.55;;
79539;SDS011;76655;52.122;5.406;2024-03-22T06:31:30;31.35;;;14.43;;
79539;SDS011;76655;52.122;5.406;2024-03-22T06:33:55;29.10;;;12.32;;
79539;SDS011;76655;52.122;5.406;2024-03-22T06:36:33;32.58;;;12.00;;
79539;SDS011;76655;52.122;5.406;2024-03-22T06:38:59;25.25;;;11.50;;
79539;SDS011;76655;52.122;5.406;2024-03-22T06:41:25;27.13;;;10.98;;
79539;SDS011;76655;52.122;5.406;2024-03-22T06:43:51;24.98;;;11.07;;
79539;SDS011;76655;52.122;5.406;2024-03-22T06:46:17;27.90;;;11.27;;
79539;SDS011;76655;52.122;5.406;2024-03-22T06:48:43;24.33;;;9.73;;
79539;SDS011;76655;52.122;5.406;2024-03-22T06:51:08;25.10;;;10.80;;
79539;SDS011;76655;52.122;5.406;2024-03-22T06:53:34;22.20;;;10.10;;
79539;SDS011;76655;52.122;5.406;2024-03-22T06:56:00;23.35;;;10.43;;
79539;SDS011;76655;52.122;5.406;2024-03-22T06:58:25;24.60;;;10.23;;
79539;SDS011;76655;52.122;5.406;2024-03-22T07:00:51;24.08;;;9.77;;
79539;SDS011;76655;52.122;5.406;2024-03-22T07:03:16;22.45;;;9.23;;
79539;SDS011;76655;52.122;5.406;2024-03-22T07:05:43;26.95;;;10.80;;
79539;SDS011;76655;52.122;5.406;2024-03-22T07:08:08;21.20;;;10.00;;
79539;SDS011;76655;52.122;5.406;2024-03-22T07:10:34;21.45;;;9.75;;
79539;SDS011;76655;52.122;5.406;2024-03-22T07:15:30;22.88;;;9.73;;
79539;SDS011;76655;52.122;5.406;2024-03-22T07:17:57;21.50;;;9.77;;
79539;SDS011;76655;52.122;5.406;2024-03-22T07:20:23;18.92;;;8.30;;
79539;SDS011;76655;52.122;5.406;2024-03-22T07:22:49;21.50;;;10.18;;
79539;SDS011;76655;52.122;5.406;2024-03-22T07:25:15;23.73;;;9.00;;
79539;SDS011;76655;52.122;5.406;2024-03-22T07:27:41;21.92;;;9.30;;
79539;SDS011;76655;52.122;5.406;2024-03-22T07:30:06;20.98;;;9.45;;
79539;SDS011;76655;52.122;5.406;2024-03-22T07:32:32;21.15;;;9.52;;
79539;SDS011;76655;52.122;5.406;2024-03-22T07:34:58;18.52;;;8.95;;
79539;SDS011;76655;52.122;5.406;2024-03-22T07:37:24;22.58;;;9.65;;
79539;SDS011;76655;52.122;5.406;2024-03-22T07:39:50;21.85;;;8.88;;
79539;SDS011;76655;52.122;5.406;2024-03-22T07:42:16;26.30;;;10.07;;
79539;SDS011;76655;52.122;5.406;2024-03-22T07:44:41;20.02;;;9.18;;
79539;SDS011;76655;52.122;5.406;2024-03-22T07:47:07;20.50;;;8.77;;
79539;SDS011;76655;52.122;5.406;2024-03-22T07:49:33;25.95;;;8.90;;
79539;SDS011;76655;52.122;5.406;2024-03-22T07:51:59;22.27;;;8.13;;
79539;SDS011;76655;52.122;5.406;2024-03-22T07:54:25;27.23;;;8.98;;
79539;SDS011;76655;52.122;5.406;2024-03-22T07:56:51;23.45;;;9.15;;
79539;SDS011;76655;52.122;5.406;2024-03-22T07:59:17;21.50;;;8.63;;
79539;SDS011;76655;52.122;5.406;2024-03-22T08:01:42;19.08;;;9.32;;
79539;SDS011;76655;52.122;5.406;2024-03-22T08:04:08;21.88;;;8.68;;
79539;SDS011;76655;52.122;5.406;2024-03-22T08:06:34;20.08;;;8.80;;
79539;SDS011;76655;52.122;5.406;2024-03-22T08:08:59;19.88;;;9.73;;
79539;SDS011;76655;52.122;5.406;2024-03-22T08:11:26;22.05;;;9.73;;
79539;SDS011;76655;52.122;5.406;2024-03-22T08:13:52;22.60;;;10.13;;
79539;SDS011;76655;52.122;5.406;2024-03-22T08:16:18;22.35;;;9.98;;
79539;SDS011;76655;52.122;5.406;2024-03-22T08:18:45;19.73;;;8.88;;
79539;SDS011;76655;52.122;5.406;2024-03-22T08:21:10;22.40;;;10.10;;
79539;SDS011;76655;52.122;5.406;2024-03-22T08:23:36;27.23;;;9.45;;
79539;SDS011;76655;52.122;5.406;2024-03-22T08:26:01;25.83;;;10.00;;
79539;SDS011;76655;52.122;5.406;2024-03-22T08:28:27;20.02;;;9.32;;
79539;SDS011;76655;52.122;5.406;2024-03-22T08:30:53;23.65;;;8.60;;
79539;SDS011;76655;52.122;5.406;2024-03-22T08:33:19;21.17;;;8.85;;
79539;SDS011;76655;52.122;5.406;2024-03-22T08:35:44;18.73;;;8.50;;
79539;SDS011;76655;52.122;5.406;2024-03-22T08:38:10;20.70;;;8.20;;
79539;SDS011;76655;52.122;5.406;2024-03-22T08:40:39;17.67;;;8.13;;
79539;SDS011;76655;52.122;5.406;2024-03-22T08:43:05;21.08;;;8.68;;
79539;SDS011;76655;52.122;5.406;2024-03-22T08:45:32;17.98;;;8.07;;
79539;SDS011;76655;52.122;5.406;2024-03-22T08:47:58;19.38;;;8.35;;
79539;SDS011;76655;52.122;5.406;2024-03-22T08:50:24;17.83;;;7.95;;
79539;SDS011;76655;52.122;5.406;2024-03-22T08:52:50;18.50;;;7.60;;
79539;SDS011;76655;52.122;5.406;2024-03-22T08:55:16;17.08;;;6.93;;
79539;SDS011;76655;52.122;5.406;2024-03-22T08:57:42;17.58;;;7.72;;
79539;SDS011;76655;52.122;5.406;2024-03-22T09:00:10;21.63;;;6.97;;
79539;SDS011;76655;52.122;5.406;2024-03-22T09:02:37;16.83;;;6.93;;
79539;SDS011;76655;52.122;5.406;2024-03-22T09:05:06;14.32;;;7.35;;
79539;SDS011;76655;52.122;5.406;2024-03-22T09:07:33;14.23;;;6.68;;
79539;SDS011;76655;52.122;5.406;2024-03-22T09:09:59;14.20;;;6.15;;
79539;SDS011;76655;52.122;5.406;2024-03-22T09:12:25;16.00;;;6.03;;
79539;SDS011;76655;52.122;5.406;2024-03-22T09:14:50;15.85;;;6.55;;
79539;SDS011;76655;52.122;5.406;2024-03-22T09:17:16;15.13;;;5.85;;
79539;SDS011;76655;52.122;5.406;2024-03-22T09:19:42;12.40;;;6.43;;
79539;SDS011;76655;52.122;5.406;2024-03-22T09:22:07;15.15;;;7.50;;
79539;SDS011;76655;52.122;5.406;2024-03-22T09:24:33;14.52;;;6.05;;
79539;SDS011;76655;52.122;5.406;2024-03-22T09:26:59;12.45;;;6.38;;
79539;SDS011;76655;52.122;5.406;2024-03-22T09:29:24;14.55;;;5.53;;
79539;SDS011;76655;52.122;5.406;2024-03-22T09:31:50;16.48;;;6.80;;
79539;SDS011;76655;52.122;5.406;2024-03-22T09:34:18;15.90;;;6.57;;
79539;SDS011;76655;52.122;5.406;2024-03-22T09:36:45;12.73;;;6.88;;
79539;SDS011;76655;52.122;5.406;2024-03-22T09:39:11;12.10;;;6.53;;
79539;SDS011;76655;52.122;5.406;2024-03-22T09:41:41;13.52;;;6.43;;
79539;SDS011;76655;52.122;5.406;2024-03-22T09:44:13;13.25;;;6.22;;
79539;SDS011;76655;52.122;5.406;2024-03-22T09:46:40;13.48;;;6.07;;
79539;SDS011;76655;52.122;5.406;2024-03-22T09:49:08;13.15;;;6.68;;
79539;SDS011;76655;52.122;5.406;2024-03-22T09:51:35;10.75;;;5.03;;
79539;SDS011;76655;52.122;5.406;2024-03-22T09:54:02;11.07;;;4.97;;
79539;SDS011;76655;52.122;5.406;2024-03-22T09:56:28;8.35;;;4.20;;
79539;SDS011;76655;52.122;5.406;2024-03-22T09:58:56;10.65;;;4.53;;
79539;SDS011;76655;52.122;5.406;2024-03-22T10:01:23;11.35;;;4.75;;
79539;SDS011;76655;52.122;5.406;2024-03-22T10:03:51;7.65;;;4.78;;
79539;SDS011;76655;52.122;5.406;2024-03-22T10:06:17;8.88;;;4.10;;
79539;SDS011;76655;52.122;5.406;2024-03-22T10:08:44;7.00;;;4.07;;
79539;SDS011;76655;52.122;5.406;2024-03-22T10:11:10;8.38;;;4.35;;
79539;SDS011;76655;52.122;5.406;2024-03-22T10:13:36;11.05;;;4.75;;
79539;SDS011;76655;52.122;5.406;2024-03-22T10:16:02;7.35;;;4.00;;
79539;SDS011;76655;52.122;5.406;2024-03-22T10:18:28;7.80;;;3.67;;
79539;SDS011;76655;52.122;5.406;2024-03-22T10:21:03;14.43;;;4.43;;
79539;SDS011;76655;52.122;5.406;2024-03-22T10:23:30;5.78;;;3.50;;
79539;SDS011;76655;52.122;5.406;2024-03-22T10:25:56;6.78;;;3.45;;
79539;SDS011;76655;52.122;5.406;2024-03-22T10:28:26;6.65;;;3.47;;
79539;SDS011;76655;52.122;5.406;2024-03-22T10:30:52;6.35;;;3.55;;
79539;SDS011;76655;52.122;5.406;2024-03-22T10:33:19;7.35;;;4.30;;
79539;SDS011;76655;52.122;5.406;2024-03-22T10:35:49;6.25;;;3.75;;
79539;SDS011;76655;52.122;5.406;2024-03-22T10:38:21;8.88;;;3.95;;
79539;SDS011;76655;52.122;5.406;2024-03-22T10:40:47;6.78;;;3.80;;
79539;SDS011;76655;52.122;5.406;2024-03-22T10:43:15;9.38;;;3.97;;
79539;SDS011;76655;52.122;5.406;2024-03-22T10:45:41;9.88;;;3.97;;
79539;SDS011;76655;52.122;5.406;2024-03-22T10:48:11;6.68;;;3.70;;
79539;SDS011;76655;52.122;5.406;2024-03-22T10:50:40;8.48;;;4.03;;
79539;SDS011;76655;52.122;5.406;2024-03-22T10:53:14;7.57;;;4.25;;
79539;SDS011;76655;52.122;5.406;2024-03-22T10:55:46;6.30;;;3.78;;
79539;SDS011;76655;52.122;5.406;2024-03-22T10:58:15;10.55;;;4.05;;
79539;SDS011;76655;52.122;5.406;2024-03-22T11:00:42;7.88;;;5.00;;
79539;SDS011;76655;52.122;5.406;2024-03-22T11:03:12;7.05;;;4.20;;
79539;SDS011;76655;52.122;5.406;2024-03-22T11:05:47;7.88;;;4.32;;
79539;SDS011;76655;52.122;5.406;2024-03-22T11:08:22;8.48;;;4.18;;
79539;SDS011;76655;52.122;5.406;2024-03-22T11:10:49;8.68;;;4.47;;
79539;SDS011;76655;52.122;5.406;2024-03-22T11:13:16;8.77;;;4.47;;
79539;SDS011;76655;52.122;5.406;2024-03-22T11:15:42;9.05;;;4.93;;
79539;SDS011;76655;52.122;5.406;2024-03-22T11:18:08;7.35;;;4.53;;
79539;SDS011;76655;52.122;5.406;2024-03-22T11:20:37;7.05;;;3.90;;
79539;SDS011;76655;52.122;5.406;2024-03-22T11:23:06;7.72;;;4.22;;
79539;SDS011;76655;52.122;5.406;2024-03-22T11:25:32;8.40;;;4.07;;
79539;SDS011;76655;52.122;5.406;2024-03-22T11:27:58;5.70;;;3.45;;
79539;SDS011;76655;52.122;5.406;2024-03-22T11:30:26;7.10;;;3.75;;
79539;SDS011;76655;52.122;5.406;2024-03-22T11:35:22;6.28;;;3.65;;
79539;SDS011;76655;52.122;5.406;2024-03-22T11:37:49;8.32;;;3.53;;
79539;SDS011;76655;52.122;5.406;2024-03-22T11:40:16;7.53;;;4.22;;
79539;SDS011;76655;52.122;5.406;2024-03-22T11:42:43;7.57;;;3.85;;
79539;SDS011;76655;52.122;5.406;2024-03-22T11:45:15;6.22;;;3.05;;
79539;SDS011;76655;52.122;5.406;2024-03-22T11:47:43;6.57;;;2.95;;
79539;SDS011;76655;52.122;5.406;2024-03-22T11:50:11;4.20;;;3.08;;
79539;SDS011;76655;52.122;5.406;2024-03-22T11:52:40;4.15;;;2.53;;
79539;SDS011;76655;52.122;5.406;2024-03-22T11:55:06;5.97;;;2.95;;
79539;SDS011;76655;52.122;5.406;2024-03-22T11:57:32;5.65;;;2.50;;
79539;SDS011;76655;52.122;5.406;2024-03-22T12:00:01;4.88;;;2.67;;
79539;SDS011;76655;52.122;5.406;2024-03-22T12:02:28;5.60;;;2.80;;
79539;SDS011;76655;52.122;5.406;2024-03-22T12:04:57;5.35;;;2.22;;
79539;SDS011;76655;52.122;5.406;2024-03-22T12:07:23;3.95;;;2.35;;
79539;SDS011;76655;52.122;5.406;2024-03-22T12:09:49;4.30;;;2.13;;
79539;SDS011;76655;52.122;5.406;2024-03-22T12:12:14;3.72;;;2.00;;
79539;SDS011;76655;52.122;5.406;2024-03-22T12:14:40;3.35;;;1.80;;
79539;SDS011;76655;52.122;5.406;2024-03-22T12:17:06;3.78;;;2.10;;
79539;SDS011;76655;52.122;5.406;2024-03-22T12:19:33;3.22;;;1.92;;
79539;SDS011;76655;52.122;5.406;2024-03-22T12:21:59;3.88;;;1.98;;
79539;SDS011;76655;52.122;5.406;2024-03-22T12:24:25;2.97;;;1.90;;
79539;SDS011;76655;52.122;5.406;2024-03-22T12:26:52;3.70;;;2.35;;
79539;SDS011;76655;52.122;5.406;2024-03-22T12:29:19;4.22;;;2.00;;
79539;SDS011;76655;52.122;5.406;2024-03-22T12:31:46;4.53;;;2.33;;
79539;SDS011;76655;52.122;5.406;2024-03-22T12:34:12;4.40;;;2.28;;
79539;SDS011;76655;52.122;5.406;2024-03-22T12:36:38;4.63;;;2.80;;
79539;SDS011;76655;52.122;5.406;2024-03-22T12:39:03;5.50;;;2.50;;
79539;SDS011;76655;52.122;5.406;2024-03-22T12:41:29;5.70;;;2.65;;
79539;SDS011;76655;52.122;5.406;2024-03-22T12:43:55;4.18;;;2.45;;
79539;SDS011;76655;52.122;5.406;2024-03-22T12:46:21;5.40;;;2.50;;
79539;SDS011;76655;52.122;5.406;2024-03-22T12:48:47;6.40;;;3.08;;
79539;SDS011;76655;52.122;5.406;2024-03-22T12:51:12;8.43;;;3.92;;
79539;SDS011;76655;52.122;5.406;2024-03-22T12:53:38;5.90;;;3.78;;
79539;SDS011;76655;52.122;5.406;2024-03-22T12:56:04;8.82;;;3.70;;
79539;SDS011;76655;52.122;5.406;2024-03-22T12:58:33;8.15;;;3.80;;
79539;SDS011;76655;52.122;5.406;2024-03-22T13:00:58;7.15;;;3.95;;
79539;SDS011;76655;52.122;5.406;2024-03-22T13:03:26;6.65;;;3.60;;
79539;SDS011;76655;52.122;5.406;2024-03-22T13:05:52;6.93;;;2.90;;
79539;SDS011;76655;52.122;5.406;2024-03-22T13:08:18;7.43;;;3.25;;
79539;SDS011;76655;52.122;5.406;2024-03-22T13:10:45;6.93;;;3.67;;
79539;SDS011;76655;52.122;5.406;2024-03-22T13:13:12;9.05;;;3.50;;
79539;SDS011;76655;52.122;5.406;2024-03-22T13:15:40;9.25;;;3.70;;
79539;SDS011;76655;52.122;5.406;2024-03-22T13:18:06;7.95;;;3.97;;
79539;SDS011;76655;52.122;5.406;2024-03-22T13:20:34;7.25;;;3.17;;
79539;SDS011;76655;52.122;5.406;2024-03-22T13:23:01;8.48;;;4.10;;
79539;SDS011;76655;52.122;5.406;2024-03-22T13:25:27;7.57;;;4.30;;
79539;SDS011;76655;52.122;5.406;2024-03-22T13:27:52;7.93;;;3.42;;
79539;SDS011;76655;52.122;5.406;2024-03-22T13:30:18;7.80;;;4.53;;
79539;SDS011;76655;52.122;5.406;2024-03-22T13:32:44;7.95;;;4.10;;
79539;SDS011;76655;52.122;5.406;2024-03-22T13:35:09;6.93;;;3.88;;
79539;SDS011;76655;52.122;5.406;2024-03-22T13:37:35;8.77;;;4.38;;
79539;SDS011;76655;52.122;5.406;2024-03-22T13:40:01;9.68;;;3.95;;
79539;SDS011;76655;52.122;5.406;2024-03-22T13:42:27;7.85;;;3.83;;
79539;SDS011;76655;52.122;5.406;2024-03-22T13:44:53;6.30;;;3.67;;
79539;SDS011;76655;52.122;5.406;2024-03-22T13:47:18;7.75;;;3.88;;
79539;SDS011;76655;52.122;5.406;2024-03-22T13:49:44;10.63;;;4.28;;
79539;SDS011;76655;52.122;5.406;2024-03-22T13:52:10;9.40;;;4.10;;
79539;SDS011;76655;52.122;5.406;2024-03-22T13:54:36;8.07;;;3.80;;
79539;SDS011;76655;52.122;5.406;2024-03-22T13:57:02;6.15;;;3.28;;
79539;SDS011;76655;52.122;5.406;2024-03-22T13:59:28;6.97;;;4.40;;
79539;SDS011;76655;52.122;5.406;2024-03-22T14:01:54;8.60;;;3.83;;
79539;SDS011;76655;52.122;5.406;2024-03-22T14:04:24;9.48;;;4.13;;
79539;SDS011;76655;52.122;5.406;2024-03-22T14:06:51;8.20;;;4.13;;
79539;SDS011;76655;52.122;5.406;2024-03-22T14:09:18;8.18;;;4.40;;
79539;SDS011;76655;52.122;5.406;2024-03-22T14:11:43;8.57;;;4.45;;
79539;SDS011;76655;52.122;5.406;2024-03-22T14:14:10;9.80;;;4.10;;
79539;SDS011;76655;52.122;5.406;2024-03-22T14:16:39;8.55;;;4.65;;
79539;SDS011;76655;52.122;5.406;2024-03-22T14:19:06;9.82;;;4.85;;
79539;SDS011;76655;52.122;5.406;2024-03-22T14:21:34;9.30;;;3.92;;
79539;SDS011;76655;52.122;5.406;2024-03-22T14:23:59;8.60;;;4.03;;
79539;SDS011;76655;52.122;5.406;2024-03-22T14:26:25;8.55;;;4.13;;
79539;SDS011;76655;52.122;5.406;2024-03-22T14:28:51;8.35;;;4.40;;
79539;SDS011;76655;52.122;5.406;2024-03-22T14:31:18;8.93;;;4.20;;
79539;SDS011;76655;52.122;5.406;2024-03-22T14:33:44;9.40;;;4.43;;